Time;durP1;ratioP1;P1;durP2;ratioP2;P2;SDS_P1;SDS_P2;PMS_P1;PMS_P2;Temp;Humidity;BMP_temperature;BMP_pressure;BME280_temperature;BME280_humidity;BME280_pressure;Samples;Min_cycle;Max_cycle;Signal;HPM_P1;HPM_P2
2022/10/21 00:00:23;;;;;;;3.75;2.17;;;;;;;18.32;46.44;93308.88;5049139;28;20037;-88
2022/10/21 00:02:48;;;;;;;2.80;2.38;;;;;;;18.34;46.58;93316.59;5010062;28;20482;-87
2022/10/21 00:05:14;;;;;;;2.58;2.33;;;;;;;18.34;46.67;93331.00;5034557;28;20048;-88
2022/10/21 00:07:39;;;;;;;2.58;2.25;;;;;;;18.34;46.94;93322.06;5035305;28;20040;-87
2022/10/21 00:10:05;;;;;;;3.35;2.50;;;;;;;18.32;46.35;93319.84;5034701;28;20469;-88
2022/10/21 00:12:31;;;;;;;2.42;2.15;;;;;;;18.34;47.04;93325.53;5036801;28;20052;-88
2022/10/21 00:14:56;;;;;;;2.67;2.35;;;;;;;18.32;47.00;93328.03;5051600;28;20040;-87
2022/10/21 00:17:21;;;;;;;3.33;2.22;;;;;;;18.33;46.82;93342.47;5018822;28;20087;-87
2022/10/21 00:19:47;;;;;;;2.53;2.03;;;;;;;18.33;46.82;93359.63;5031752;28;20033;-88
2022/10/21 00:22:15;;;;;;;4.00;2.55;;;;;;;18.33;47.09;93370.59;5017611;28;20064;-88
2022/10/21 00:24:40;;;;;;;3.22;2.40;;;;;;;18.30;47.10;93374.34;5048390;28;20114;-88
2022/10/21 00:27:06;;;;;;;4.22;2.63;;;;;;;18.33;46.89;93380.78;5051126;28;20515;-87
2022/10/21 00:29:31;;;;;;;3.17;2.00;;;;;;;18.30;46.74;93382.53;5051870;28;20041;-89
2022/10/21 00:31:56;;;;;;;4.22;2.40;;;;;;;18.30;47.07;93390.75;5021122;28;20029;-87
2022/10/21 00:34:22;;;;;;;2.63;2.10;;;;;;;18.31;47.07;93394.22;5036468;28;20499;-88
2022/10/21 00:36:47;;;;;;;2.85;2.30;;;;;;;18.32;47.23;93392.97;5042414;28;20036;-87
2022/10/21 00:39:13;;;;;;;3.63;2.45;;;;;;;18.31;47.13;93396.97;5034033;28;20033;-88
2022/10/21 00:41:38;;;;;;;4.18;2.50;;;;;;;18.31;47.48;93394.97;5015156;28;20169;-87
2022/10/21 00:44:05;;;;;;;3.60;2.65;;;;;;;18.32;46.87;93390.25;5030654;28;20349;-87
2022/10/21 00:46:38;;;;;;;3.17;2.35;;;;;;;18.30;47.00;93401.69;5004007;28;20072;-87
2022/10/21 00:49:06;;;;;;;4.38;2.22;;;;;;;18.31;46.61;93400.44;5031422;28;20041;-87
2022/10/21 00:51:32;;;;;;;2.40;2.13;;;;;;;18.31;47.02;93391.50;5024495;28;20037;-89
2022/10/21 00:53:57;;;;;;;3.78;2.20;;;;;;;18.31;47.04;93389.50;5017978;28;20394;-87
2022/10/21 00:56:26;;;;;;;2.80;2.42;;;;;;;18.30;46.97;93385.28;5033899;28;20047;-89
2022/10/21 00:58:52;;;;;;;3.78;2.42;;;;;;;18.31;47.14;93383.28;5017661;28;20041;-87
2022/10/21 01:01:17;;;;;;;3.28;2.25;;;;;;;18.32;47.19;93382.03;5033677;28;20518;-87
2022/10/21 01:03:43;;;;;;;3.25;2.20;;;;;;;18.30;47.50;93388.00;5034477;28;20059;-88
2022/10/21 01:06:09;;;;;;;3.40;2.20;;;;;;;18.34;46.84;93382.28;5016920;28;20086;-88
2022/10/21 01:08:34;;;;;;;3.10;2.40;;;;;;;18.34;47.25;93383.00;5034582;28;20411;-88
2022/10/21 01:11:00;;;;;;;2.60;2.10;;;;;;;18.31;47.19;93381.28;5040770;28;20041;-88
2022/10/21 01:13:48;;;;;;;2.95;2.47;;;;;;;18.30;47.32;93382.53;5031083;28;20029;-88
2022/10/21 01:16:21;;;;;;;3.45;2.50;;;;;;;18.29;47.23;93372.84;5031423;28;20037;-87
2022/10/21 01:19:05;;;;;;;2.90;2.30;;;;;;;18.29;47.39;93375.59;5047371;28;20086;-87
2022/10/21 01:21:48;;;;;;;3.65;2.45;;;;;;;18.30;47.13;93377.06;5059148;28;20142;-87
2022/10/21 01:24:35;;;;;;;2.50;2.30;;;;;;;18.29;47.03;93380.31;5037770;28;20071;-89
2022/10/21 01:27:23;;;;;;;2.42;2.20;;;;;;;18.31;47.04;93384.03;5047568;28;20076;-88
2022/10/21 01:29:52;;;;;;;2.38;2.13;;;;;;;18.31;47.15;93372.34;5030192;28;20115;-87
2022/10/21 01:32:45;;;;;;;2.95;2.22;;;;;;;18.29;47.28;93383.06;5046567;28;20650;-88
2022/10/21 01:35:25;;;;;;;2.65;2.20;;;;;;;18.29;47.07;93394.00;5019240;28;20065;-88
2022/10/21 01:38:06;;;;;;;2.58;2.20;;;;;;;18.28;47.43;93393.25;5047847;28;20048;-87
2022/10/21 01:40:58;;;;;;;3.20;2.47;;;;;;;18.28;47.24;93389.78;5034944;28;20048;-88
2022/10/21 01:43:36;;;;;;;3.20;2.22;;;;;;;18.28;47.17;93389.78;5049632;28;20131;-88
2022/10/21 01:46:06;;;;;;;3.05;2.28;;;;;;;18.28;47.18;93393.25;5030580;28;20041;-88
2022/10/21 01:48:34;;;;;;;2.50;1.98;;;;;;;18.28;47.41;93403.47;5032724;28;20391;-88
2022/10/21 01:51:05;;;;;;;3.65;2.30;;;;;;;18.27;47.30;93402.72;5033231;28;20039;-87
2022/10/21 01:53:35;;;;;;;2.72;2.25;;;;;;;18.27;47.29;93408.19;5016631;28;20047;-89
2022/10/21 01:56:00;;;;;;;3.42;2.28;;;;;;;18.29;47.31;93416.63;5017161;28;20045;-87
2022/10/21 01:58:28;;;;;;;3.75;1.95;;;;;;;18.27;47.32;93405.44;5029787;28;20048;-87
2022/10/21 02:00:54;;;;;;;2.90;2.22;;;;;;;18.28;46.88;93395.25;5013702;28;20500;-88
2022/10/21 02:03:23;;;;;;;3.25;2.25;;;;;;;18.27;47.15;93396.50;5029201;28;20128;-88
2022/10/21 02:05:48;;;;;;;2.58;2.17;;;;;;;18.28;47.68;93397.97;5026618;28;20051;-88
2022/10/21 02:08:13;;;;;;;2.80;2.08;;;;;;;18.28;47.40;93381.56;5015867;28;20438;-87
2022/10/21 02:10:41;;;;;;;2.47;2.05;;;;;;;18.27;47.10;93386.28;5032731;28;20329;-87
2022/10/21 02:13:08;;;;;;;2.42;1.90;;;;;;;18.29;47.14;93388.53;5032811;28;20037;-89
2022/10/21 02:15:33;;;;;;;2.55;1.92;;;;;;;18.28;46.95;93371.38;5033174;28;20120;-87
2022/10/21 02:18:07;;;;;;;2.88;2.20;;;;;;;18.32;47.23;93376.56;5032976;28;20414;-87
2022/10/21 02:20:37;;;;;;;3.42;2.50;;;;;;;18.27;47.36;93358.94;5031545;28;20060;-87
2022/10/21 02:23:03;;;;;;;3.47;1.90;;;;;;;18.27;47.13;93369.13;5032872;28;20072;-87
2022/10/21 02:25:30;;;;;;;2.90;2.25;;;;;;;18.26;47.25;93356.72;5025526;28;20032;-89
2022/10/21 02:27:55;;;;;;;3.53;2.58;;;;;;;18.27;47.54;93358.19;5032948;28;20065;-88
2022/10/21 02:30:20;;;;;;;2.15;1.95;;;;;;;18.26;47.59;93368.41;5032006;28;20203;-87
2022/10/21 02:32:48;;;;;;;2.65;1.67;;;;;;;18.28;47.29;93362.41;5018988;28;20068;-88
2022/10/21 02:35:48;;;;;;;2.80;2.13;;;;;;;18.26;47.04;93367.66;5016805;28;20198;-88
2022/10/21 02:38:27;;;;;;;3.03;1.98;;;;;;;18.26;47.12;93362.19;5048207;28;20032;-87
2022/10/21 02:40:55;;;;;;;3.15;2.10;;;;;;;18.26;47.22;93357.44;5032615;28;20047;-88
2022/10/21 02:43:22;;;;;;;2.90;2.28;;;;;;;18.26;47.59;93349.25;5032202;28;20273;-88
2022/10/21 02:45:47;;;;;;;3.00;2.30;;;;;;;18.25;47.26;93352.47;5045839;28;20033;-88
2022/10/21 02:48:13;;;;;;;3.17;2.25;;;;;;;18.23;47.40;93355.72;5032026;28;20052;-87
2022/10/21 02:50:38;;;;;;;2.42;2.00;;;;;;;18.25;47.35;93347.75;5012557;28;20033;-87
2022/10/21 02:53:03;;;;;;;3.20;2.03;;;;;;;18.26;47.19;93346.50;5023732;28;20056;-88
2022/10/21 02:55:29;;;;;;;2.45;2.00;;;;;;;18.27;47.04;93345.25;5030339;28;20146;-87
2022/10/21 02:57:54;;;;;;;2.42;1.60;;;;;;;18.26;47.26;93338.28;5048675;28;20098;-90
2022/10/21 03:00:20;;;;;;;2.47;1.95;;;;;;;18.26;47.10;93349.25;5030593;28;20036;-87
2022/10/21 03:02:45;;;;;;;5.65;2.38;;;;;;;18.25;47.42;93344.28;5040102;28;20434;-87
2022/10/21 03:05:11;;;;;;;2.75;2.17;;;;;;;18.26;47.09;93332.06;5031463;28;20033;-87
2022/10/21 03:07:37;;;;;;;3.05;2.03;;;;;;;18.26;46.89;93338.28;5028531;28;20033;-87
2022/10/21 03:10:03;;;;;;;3.92;1.92;;;;;;;18.25;47.26;93325.88;5028068;28;20508;-89
2022/10/21 03:12:29;;;;;;;3.35;2.03;;;;;;;18.26;47.48;93321.88;5022770;28;20542;-87
2022/10/21 03:14:54;;;;;;;3.10;2.03;;;;;;;18.28;47.05;93316.63;5015813;28;20051;-87
2022/10/21 03:17:19;;;;;;;2.10;1.85;;;;;;;18.27;47.18;93314.41;5028160;28;20041;-87
2022/10/21 03:19:45;;;;;;;3.55;1.85;;;;;;;18.25;47.30;93309.44;5028602;28;20033;-88
2022/10/21 03:22:10;;;;;;;2.85;1.90;;;;;;;18.25;47.49;93320.41;5027672;28;20059;-88
2022/10/21 03:24:36;;;;;;;2.53;2.00;;;;;;;18.28;47.22;93315.91;5021481;28;20049;-89
2022/10/21 03:27:01;;;;;;;3.65;2.85;;;;;;;18.17;46.37;93314.03;4997596;28;20041;-87
2022/10/21 03:29:26;;;;;;;8.73;2.78;;;;;;;18.09;45.73;93308.34;5008336;28;20625;-90
2022/10/21 03:31:52;;;;;;;6.93;3.38;;;;;;;18.03;45.34;93293.25;4992622;28;20045;-88
2022/10/21 03:34:17;;;;;;;5.50;4.20;;;;;;;17.97;44.71;93281.63;5026399;28;20037;-88
2022/10/21 03:36:43;;;;;;;9.77;5.10;;;;;;;17.87;44.42;93266.78;4991250;28;20045;-88
2022/10/21 03:39:10;;;;;;;11.48;5.60;;;;;;;17.83;44.32;93264.31;4991791;28;20060;-87
2022/10/21 03:41:35;;;;;;;8.43;5.63;;;;;;;17.83;44.02;93247.19;5010796;28;20040;-87
2022/10/21 03:44:01;;;;;;;9.77;5.80;;;;;;;17.80;44.26;93257.88;5003771;28;20101;-88
2022/10/21 03:46:26;;;;;;;9.80;5.75;;;;;;;17.83;44.27;93258.13;5024749;28;20037;-87
2022/10/21 03:48:51;;;;;;;8.80;5.50;;;;;;;17.84;44.35;93263.06;5043805;28;20037;-87
2022/10/21 03:51:17;;;;;;;9.50;5.57;;;;;;;17.85;43.86;93261.81;5011193;28;20338;-87
2022/10/21 03:53:42;;;;;;;8.30;5.65;;;;;;;17.87;44.29;93270.25;5012135;28;20538;-88
2022/10/21 03:56:07;;;;;;;10.50;5.93;;;;;;;17.88;43.95;93296.34;4995347;28;20091;-87
2022/10/21 03:58:34;;;;;;;12.70;6.43;;;;;;;17.91;44.31;93309.00;5011126;28;20064;-88
2022/10/21 04:01:00;;;;;;;8.02;5.28;;;;;;;17.93;44.34;93309.25;5029552;28;20495;-88
2022/10/21 04:03:25;;;;;;;9.88;6.35;;;;;;;17.93;44.43;93309.25;5017012;28;20060;-88
2022/10/21 04:05:50;;;;;;;8.50;5.95;;;;;;;17.98;44.90;93307.69;5012315;28;20114;-88
2022/10/21 04:08:16;;;;;;;8.60;6.13;;;;;;;18.01;44.68;93317.63;5007466;28;20419;-88
2022/10/21 04:10:43;;;;;;;6.10;5.05;;;;;;;17.96;45.34;93310.97;5008918;28;20033;-88
2022/10/21 04:13:08;;;;;;;6.55;5.00;;;;;;;17.98;45.38;93302.97;5002374;28;20504;-89
2022/10/21 04:15:34;;;;;;;5.15;4.05;;;;;;;18.01;45.55;93312.91;5028720;28;20104;-87
2022/10/21 04:17:59;;;;;;;8.10;5.18;;;;;;;18.01;45.54;93317.63;5031551;28;20052;-87
2022/10/21 04:20:25;;;;;;;8.93;4.28;;;;;;;18.02;45.91;93321.84;5035650;28;20072;-87
2022/10/21 04:22:50;;;;;;;6.68;4.50;;;;;;;18.03;45.73;93315.88;5042920;28;20037;-87
2022/10/21 04:25:15;;;;;;;5.07;4.50;;;;;;;18.04;46.03;93300.94;5034903;28;20041;-88
2022/10/21 04:27:41;;;;;;;7.50;4.50;;;;;;;18.04;45.96;93313.88;5018855;28;20407;-87
2022/10/21 04:30:07;;;;;;;6.65;3.80;;;;;;;18.07;46.15;93305.38;5031071;28;20045;-88
2022/10/21 04:32:32;;;;;;;4.88;4.10;;;;;;;18.06;46.28;93306.63;5045864;28;20041;-87
2022/10/21 04:34:58;;;;;;;5.95;3.97;;;;;;;18.05;45.94;93313.38;5015095;28;20095;-87
2022/10/21 04:37:23;;;;;;;4.28;3.38;;;;;;;18.07;46.17;93313.59;5033606;28;20029;-90
2022/10/21 04:39:49;;;;;;;3.92;3.53;;;;;;;18.07;46.33;93307.38;5051317;28;20040;-87
2022/10/21 04:42:15;;;;;;;4.95;3.67;;;;;;;18.06;46.12;93308.63;5031910;28;20514;-89
2022/10/21 04:44:40;;;;;;;5.28;3.45;;;;;;;18.09;46.15;93294.69;5031422;28;20052;-87
2022/10/21 04:47:06;;;;;;;4.28;3.42;;;;;;;18.07;46.02;93299.19;5023728;28;20593;-88
2022/10/21 04:49:31;;;;;;;5.53;3.05;;;;;;;18.08;46.37;93300.66;4997604;28;20103;-89
2022/10/21 04:51:57;;;;;;;11.05;9.88;;;;;;;18.09;46.25;93293.94;4993934;28;20439;-88
2022/10/21 04:54:22;;;;;;;6.57;5.68;;;;;;;18.12;46.03;93290.19;4992537;28;20168;-89
2022/10/21 04:56:48;;;;;;;6.57;4.38;;;;;;;18.11;45.84;93281.22;4991039;28;21036;-88
2022/10/21 04:59:16;;;;;;;4.68;3.88;;;;;;;18.09;46.07;93286.47;4990131;28;20045;-87
2022/10/21 05:01:41;;;;;;;4.43;4.03;;;;;;;18.12;46.34;93276.50;4993731;28;20116;-88
2022/10/21 05:04:07;;;;;;;5.47;4.45;;;;;;;18.14;46.25;93271.25;4992670;28;20045;-89
2022/10/21 05:06:32;;;;;;;5.25;3.85;;;;;;;18.14;46.31;93272.00;4977398;28;20034;-91
2022/10/21 05:08:57;;;;;;;4.25;3.83;;;;;;;18.10;46.29;93266.06;4990127;28;20506;-89
2022/10/21 05:11:23;;;;;;;5.45;3.90;;;;;;;18.13;45.95;93265.06;4971333;28;20148;-86
2022/10/21 05:13:48;;;;;;;7.03;4.40;;;;;;;18.11;46.34;93266.81;4992909;28;20100;-88
2022/10/21 05:16:13;;;;;;;11.20;4.03;;;;;;;18.13;46.19;93259.56;4994926;28;20185;-88
2022/10/21 05:18:39;;;;;;;5.22;4.05;;;;;;;18.12;46.47;93257.34;5004400;28;20403;-88
2022/10/21 05:21:04;;;;;;;15.55;4.47;;;;;;;18.12;46.38;93258.09;5049442;28;20574;-91
2022/10/21 05:23:30;;;;;;;5.88;4.18;;;;;;;18.13;46.18;93256.84;5046340;28;20052;-87
2022/10/21 05:25:55;;;;;;;4.03;3.33;;;;;;;18.12;46.14;93252.63;5013997;28;20053;-90
2022/10/21 05:28:21;;;;;;;14.65;9.48;;;;;;;18.06;45.98;93251.94;5021333;28;20029;-89
2022/10/21 05:30:46;;;;;;;21.63;10.48;;;;;;;18.03;45.64;93250.22;5016473;28;20059;-90
2022/10/21 05:33:12;;;;;;;12.88;8.68;;;;;;;18.05;46.05;93249.69;5018358;28;20045;-91
2022/10/21 05:35:37;;;;;;;20.08;9.73;;;;;;;18.03;45.86;93258.41;5034369;28;20045;-91
2022/10/21 05:38:03;;;;;;;10.43;7.15;;;;;;;18.06;45.76;93246.47;4994276;28;20038;-90
2022/10/21 05:40:29;;;;;;;11.43;7.38;;;;;;;18.04;45.50;93237.28;5033003;28;20071;-90
2022/10/21 05:42:54;;;;;;;9.73;6.95;;;;;;;18.03;45.85;93250.22;5016129;28;20059;-90
2022/10/21 05:45:20;;;;;;;16.95;6.72;;;;;;;18.04;46.32;93240.75;5011340;28;21847;-91
2022/10/21 05:47:45;;;;;;;15.80;5.95;;;;;;;18.07;46.04;93244.47;4998401;28;20487;-90
2022/10/21 05:50:11;;;;;;;12.70;5.78;;;;;;;18.05;46.04;93246.97;4983273;28;20526;-88
2022/10/21 05:52:36;;;;;;;18.75;6.60;;;;;;;18.07;45.98;93242.47;4984572;28;20068;-88
2022/10/21 05:55:02;;;;;;;38.00;11.27;;;;;;;18.09;46.13;93231.75;5068201;28;20616;-88
2022/10/21 05:57:29;;;;;;;218.50;41.83;;;;;;;18.06;46.11;93221.84;5018821;28;20037;-90
2022/10/21 05:59:54;;;;;;;1622.32;371.08;;;;;;;18.08;46.35;93215.88;5000158;28;20047;-89
2022/10/21 06:02:20;;;;;;;1309.57;297.70;;;;;;;18.09;46.36;93218.09;5014283;28;20041;-88
2022/10/21 06:04:45;;;;;;;115.68;21.70;;;;;;;17.82;45.90;93205.41;5013452;28;20066;-87
2022/10/21 06:07:10;;;;;;;521.78;201.50;;;;;;;17.74;47.09;93208.00;5013398;28;20481;-88
2022/10/21 06:09:36;;;;;;;286.15;54.65;;;;;;;17.80;47.08;93211.41;4997419;28;20047;-88
2022/10/21 06:12:02;;;;;;;239.90;41.10;;;;;;;17.83;47.15;93209.63;5009262;28;20033;-87
2022/10/21 06:14:28;;;;;;;176.10;33.40;;;;;;;17.77;46.60;93211.69;5005225;28;20041;-87
2022/10/21 06:16:53;;;;;;;64.60;15.13;;;;;;;17.69;45.82;93222.44;5010348;28;20555;-88
2022/10/21 06:19:19;;;;;;;41.13;11.65;;;;;;;17.69;45.87;93219.72;5015537;28;20301;-88
2022/10/21 06:21:46;;;;;;;29.23;9.35;;;;;;;17.69;45.40;93219.72;5016518;28;20509;-88
2022/10/21 06:24:11;;;;;;;19.33;8.27;;;;;;;17.66;45.64;93214.53;5036728;28;20044;-89
2022/10/21 06:26:36;;;;;;;19.02;10.38;;;;;;;17.67;45.67;93216.00;5029843;28;20273;-87
2022/10/21 06:29:02;;;;;;;25.55;10.25;;;;;;;17.71;45.44;93213.75;5021333;28;20053;-88
2022/10/21 06:31:27;;;;;;;30.05;10.10;;;;;;;17.71;45.51;93214.47;5029320;28;20041;-88
2022/10/21 06:33:53;;;;;;;28.73;10.80;;;;;;;17.74;45.69;93218.19;5024229;28;20132;-87
2022/10/21 06:36:18;;;;;;;25.52;9.55;;;;;;;17.75;45.51;93219.69;5054283;28;20028;-88
2022/10/21 06:38:43;;;;;;;28.60;10.15;;;;;;;17.79;45.95;93228.31;5044677;28;20082;-88
2022/10/21 06:41:10;;;;;;;29.02;13.02;;;;;;;17.83;45.91;93225.31;5062666;28;20041;-86
2022/10/21 06:43:35;;;;;;;27.77;13.25;;;;;;;17.85;45.62;93228.28;5019048;28;20040;-90
2022/10/21 06:46:05;;;;;;;42.42;18.30;;;;;;;17.89;45.69;93223.25;5034076;28;20040;-85
2022/10/21 06:48:31;;;;;;;31.77;15.10;;;;;;;17.88;46.09;93227.25;5028689;28;20033;-86
2022/10/21 06:51:07;;;;;;;38.38;12.52;;;;;;;17.89;46.49;93226.75;5014814;28;20107;-86
2022/10/21 06:53:33;;;;;;;35.63;11.40;;;;;;;17.91;46.58;93218.03;5033108;28;20037;-86
2022/10/21 06:56:00;;;;;;;36.17;11.68;;;;;;;17.96;46.08;93211.78;5016301;28;20117;-91
2022/10/21 06:58:26;;;;;;;32.33;10.93;;;;;;;17.94;46.16;93214.28;5032068;28;20048;-86
2022/10/21 07:00:51;;;;;;;31.33;10.95;;;;;;;17.98;46.23;93217.44;5038045;28;20466;-86
2022/10/21 07:03:17;;;;;;;28.67;9.07;;;;;;;17.94;46.53;93215.00;5045054;28;20546;-86
2022/10/21 07:05:42;;;;;;;27.33;9.73;;;;;;;17.97;46.21;93222.16;5029122;28;20037;-87
2022/10/21 07:08:08;;;;;;;17.60;8.07;;;;;;;18.00;46.39;93220.41;5013545;28;20503;-86
2022/10/21 07:10:33;;;;;;;24.33;9.10;;;;;;;17.99;46.29;93213.47;5032397;28;20089;-88
2022/10/21 07:12:58;;;;;;;829.03;167.18;;;;;;;17.98;46.43;93222.91;5039335;28;20089;-86
2022/10/21 07:15:24;;;;;;;1999.90;439.40;;;;;;;18.02;46.59;93232.31;5049016;28;20040;-88
2022/10/21 07:17:49;;;;;;;1999.90;631.35;;;;;;;17.97;46.62;93237.88;5049151;28;20106;-88
2022/10/21 07:20:15;;;;;;;1042.07;219.02;;;;;;;17.97;46.51;93235.84;5041581;28;20037;-88
2022/10/21 07:22:40;;;;;;;995.92;203.38;;;;;;;17.98;46.57;93239.31;5012309;28;20033;-86
2022/10/21 07:25:07;;;;;;;925.75;175.13;;;;;;;18.00;46.40;93229.34;5027537;28;20036;-85
2022/10/21 07:27:32;;;;;;;976.25;350.02;;;;;;;17.93;46.95;93224.47;5030726;28;20044;-85
2022/10/21 07:29:57;;;;;;;198.48;52.47;;;;;;;17.91;46.92;93224.25;5012708;28;20098;-86
2022/10/21 07:32:23;;;;;;;57.10;16.42;;;;;;;17.88;47.12;93222.53;5012189;28;20045;-89
2022/10/21 07:34:48;;;;;;;46.75;14.23;;;;;;;17.85;47.27;93228.28;5025157;28;20591;-92
2022/10/21 07:37:14;;;;;;;23.80;9.85;;;;;;;17.78;46.66;93216.63;5008538;28;20541;-88
2022/10/21 07:39:39;;;;;;;22.65;8.77;;;;;;;17.78;47.32;93213.16;5022157;28;20461;-86
2022/10/21 07:42:04;;;;;;;30.75;8.90;;;;;;;17.77;47.03;93203.47;5027851;28;20037;-86
2022/10/21 07:44:30;;;;;;;17.42;7.25;;;;;;;17.77;47.19;93204.22;5028470;28;20040;-85
2022/10/21 07:46:55;;;;;;;16.80;6.93;;;;;;;17.75;47.23;93198.50;5029485;28;20045;-86
2022/10/21 07:49:21;;;;;;;13.10;6.60;;;;;;;17.70;47.17;93187.66;5048088;28;20124;-85
2022/10/21 07:51:48;;;;;;;15.35;5.80;;;;;;;17.71;47.28;93200.81;5033120;28;20590;-85
2022/10/21 07:54:14;;;;;;;15.15;5.82;;;;;;;17.67;47.37;93202.34;5035808;28;20049;-85
2022/10/21 07:56:41;;;;;;;12.20;6.00;;;;;;;17.66;47.05;93198.88;5052052;28;20031;-86
2022/10/21 07:59:07;;;;;;;11.98;5.50;;;;;;;17.67;47.68;93202.34;5034797;28;20040;-85
2022/10/21 08:01:35;;;;;;;10.63;5.50;;;;;;;17.62;47.23;93200.38;5041343;28;20109;-85
2022/10/21 08:04:00;;;;;;;9.05;6.30;;;;;;;17.61;47.33;93187.94;5030778;28;20435;-86
2022/10/21 08:06:26;;;;;;;9.20;5.53;;;;;;;17.63;47.24;93196.38;5011773;28;20107;-85
2022/10/21 08:08:51;;;;;;;11.57;6.07;;;;;;;17.61;47.49;93191.41;5015770;28;20066;-86
2022/10/21 08:11:24;;;;;;;10.02;6.03;;;;;;;17.58;47.51;93188.97;5014502;28;20084;-85
2022/10/21 08:13:50;;;;;;;9.38;6.63;;;;;;;17.56;47.58;93186.00;5031410;28;20125;-86
2022/10/21 08:16:15;;;;;;;15.50;9.80;;;;;;;17.54;47.86;93172.84;5031690;28;20037;-85
2022/10/21 08:18:40;;;;;;;11.60;8.07;;;;;;;17.56;48.07;93172.34;5033781;28;20041;-85
2022/10/21 08:21:06;;;;;;;16.73;7.03;;;;;;;17.58;47.99;93159.63;5052711;28;20051;-85
2022/10/21 08:23:32;;;;;;;11.65;6.43;;;;;;;17.53;48.30;93168.66;5059533;28;20047;-86
2022/10/21 08:25:59;;;;;;;8.90;6.15;;;;;;;17.58;48.03;93159.63;5052510;28;20037;-85
2022/10/21 08:28:25;;;;;;;9.48;6.07;;;;;;;17.59;47.98;93144.72;5034791;28;20127;-85
2022/10/21 08:30:50;;;;;;;9.50;6.60;;;;;;;17.65;48.07;93155.63;5033431;28;20037;-90
2022/10/21 08:33:16;;;;;;;10.35;6.97;;;;;;;17.68;47.87;93151.88;5046640;28;20453;-84
2022/10/21 08:35:41;;;;;;;15.40;8.65;;;;;;;17.69;47.92;93145.91;5033753;28;20044;-85
2022/10/21 08:38:07;;;;;;;14.52;10.15;;;;;;;17.70;47.73;93144.66;5017542;28;20044;-86
2022/10/21 08:40:44;;;;;;;14.77;11.20;;;;;;;17.75;47.73;93145.84;5035605;28;20067;-85
2022/10/21 08:43:27;;;;;;;21.00;12.00;;;;;;;17.77;47.44;93144.06;5031744;28;20037;-85
2022/10/21 08:45:57;;;;;;;14.02;8.25;;;;;;;17.77;47.80;93135.88;5035475;28;20044;-85
2022/10/21 08:48:25;;;;;;;15.77;8.55;;;;;;;17.80;47.41;93134.09;5047823;28;20491;-86
2022/10/21 08:50:50;;;;;;;14.20;8.05;;;;;;;17.80;47.78;93137.56;5050497;28;20139;-85
2022/10/21 08:53:21;;;;;;;13.75;7.00;;;;;;;17.84;47.75;93134.56;5033990;28;20063;-85
2022/10/21 08:55:46;;;;;;;;;;;;;;;17.88;47.28;93137.00;5019535;28;20040;-85
2022/10/21 08:58:14;;;;;;;13.97;7.00;;;;;;;17.85;47.64;93130.56;5067657;28;19928;-85
2022/10/21 09:00:49;;;;;;;10.32;6.05;;;;;;;17.81;48.40;93130.84;5034028;28;20288;-85
2022/10/21 09:03:20;;;;;;;14.63;5.95;;;;;;;17.80;48.78;93134.09;5033033;28;20036;-87
2022/10/21 09:05:59;;;;;;;7.82;5.55;;;;;;;17.76;48.75;93128.91;5048763;28;20041;-85
2022/10/21 09:08:53;;;;;;;10.13;5.47;;;;;;;17.77;48.60;93113.25;5048786;28;20496;-86
2022/10/21 09:11:26;;;;;;;9.35;5.60;;;;;;;17.76;49.13;93128.19;5056407;28;20277;-85
2022/10/21 09:13:58;;;;;;;8.40;5.75;;;;;;;17.73;49.35;93119.03;5032550;28;20516;-86
2022/10/21 09:16:50;;;;;;;13.57;6.78;;;;;;;17.71;49.38;93115.31;5050054;28;20106;-89
2022/10/21 09:19:29;;;;;;;8.38;6.30;;;;;;;17.68;49.11;93108.88;5042918;28;20064;-87
2022/10/21 09:22:28;;;;;;;7.00;5.80;;;;;;;17.69;49.37;93120.56;4999240;28;20087;-88
2022/10/21 09:24:58;;;;;;;9.85;6.32;;;;;;;17.64;49.31;93119.38;5009368;28;20877;-88
2022/10/21 09:27:23;;;;;;;8.43;5.60;;;;;;;17.63;49.29;93112.38;4995243;28;20547;-87
2022/10/21 09:29:52;;;;;;;8.35;5.78;;;;;;;17.62;49.70;93105.44;4999974;28;20088;-85
2022/10/21 09:32:31;;;;;;;9.65;5.25;;;;;;;17.63;49.90;93106.19;4996295;28;20072;-86
2022/10/21 09:35:13;;;;;;;6.47;5.30;;;;;;;17.62;49.67;93108.16;4999184;28;20044;-89
2022/10/21 09:38:01;;;;;;;6.65;4.85;;;;;;;17.63;49.49;93104.19;5011653;28;20344;-86
2022/10/21 09:40:28;;;;;;;11.98;5.63;;;;;;;17.60;49.56;93083.34;5027421;28;20045;-87
2022/10/21 09:42:55;;;;;;;28.45;23.60;;;;;;;17.60;49.81;93088.06;5005153;28;20115;-88
2022/10/21 09:45:33;;;;;;;28.92;24.30;;;;;;;17.58;49.71;93085.84;4999508;28;20514;-88
2022/10/21 09:48:02;;;;;;;19.98;13.48;;;;;;;17.58;49.78;93072.19;5032949;28;20037;-90
2022/10/21 09:50:27;;;;;;;11.68;9.07;;;;;;;17.59;50.08;93059.25;5018819;28;20049;-85
2022/10/21 09:53:08;;;;;;;10.85;7.80;;;;;;;17.61;50.15;93060.22;4995882;28;20030;-84
2022/10/21 09:55:33;;;;;;;9.75;7.32;;;;;;;17.59;49.79;93062.72;4999293;28;20385;-87
2022/10/21 09:58:00;;;;;;;11.60;7.13;;;;;;;17.62;49.63;93055.50;5000090;28;20029;-88
2022/10/21 10:00:40;;;;;;;10.90;6.43;;;;;;;17.64;49.50;93047.53;5029321;28;20041;-86
2022/10/21 10:03:05;;;;;;;10.00;5.80;;;;;;;17.66;49.53;93050.50;4997847;28;20115;-85
2022/10/21 10:05:40;;;;;;;8.93;6.80;;;;;;;17.70;49.78;93051.72;5023173;28;20084;-90
2022/10/21 10:08:22;;;;;;;13.48;6.82;;;;;;;17.72;49.59;93049.19;5033003;28;20064;-88
2022/10/21 10:10:48;;;;;;;9.35;6.85;;;;;;;17.72;49.03;93051.19;5011897;28;20076;-86
2022/10/21 10:13:16;;;;;;;10.63;5.95;;;;;;;17.74;49.55;93052.16;5011778;28;20037;-85
2022/10/21 10:15:42;;;;;;;11.57;6.22;;;;;;;17.76;49.13;93062.56;5005822;28;20041;-85
2022/10/21 10:18:19;;;;;;;18.83;6.88;;;;;;;17.78;49.44;93066.25;5009400;28;20474;-86
2022/10/21 10:20:44;;;;;;;17.70;11.25;;;;;;;17.76;49.71;93060.56;5007736;28;20045;-85
2022/10/21 10:23:16;;;;;;;17.55;14.15;;;;;;;17.77;49.72;93058.56;5029453;28;20047;-85
2022/10/21 10:25:43;;;;;;;15.73;10.90;;;;;;;17.76;49.74;93062.56;5041103;28;20040;-86
2022/10/21 10:28:08;;;;;;;9.80;8.18;;;;;;;17.73;49.96;93053.41;5032475;28;20029;-88
2022/10/21 10:30:36;;;;;;;11.85;7.47;;;;;;;17.72;49.96;93064.88;5066805;28;20418;-86
2022/10/21 10:33:15;;;;;;;10.50;6.80;;;;;;;17.76;49.87;93054.34;5051097;28;20059;-86
2022/10/21 10:35:51;;;;;;;9.68;7.03;;;;;;;17.78;49.70;93055.31;5024201;28;20052;-90
2022/10/21 10:38:37;;;;;;;12.05;7.45;;;;;;;17.77;49.75;93051.13;5031599;28;20043;-88
2022/10/21 10:41:11;;;;;;;11.88;7.05;;;;;;;17.80;49.88;93052.06;5059712;28;20095;-85
2022/10/21 10:43:45;;;;;;;8.73;6.65;;;;;;;17.79;49.91;93054.06;5044990;28;20105;-85
2022/10/21 10:46:21;;;;;;;8.05;5.50;;;;;;;17.82;49.82;93052.31;5030962;28;20044;-84
2022/10/21 10:48:47;;;;;;;9.52;5.93;;;;;;;17.84;49.59;93049.78;5018480;28;20120;-85
2022/10/21 10:51:24;;;;;;;9.15;5.93;;;;;;;17.84;49.66;93047.06;5032341;28;20040;-86
2022/10/21 10:54:00;;;;;;;10.55;6.32;;;;;;;17.86;49.24;93046.53;5047226;28;20067;-85
2022/10/21 10:56:32;;;;;;;6.07;4.72;;;;;;;17.87;49.31;93053.50;5049605;28;20503;-84
2022/10/21 10:59:14;;;;;;;6.00;4.82;;;;;;;17.88;49.00;93046.78;5045243;28;20036;-86
2022/10/21 11:01:45;;;;;;;9.60;5.47;;;;;;;17.88;49.16;93044.03;5046966;28;20048;-85
2022/10/21 11:04:22;;;;;;;13.02;9.93;;;;;;;17.89;49.21;93040.06;5035492;28;20094;-85
2022/10/21 11:06:50;;;;;;;20.70;15.65;;;;;;;17.92;49.23;93053.44;5047652;28;20748;-85
2022/10/21 11:09:16;;;;;;;18.50;14.18;;;;;;;17.92;49.64;93045.22;5047810;28;20085;-84
2022/10/21 11:11:46;;;;;;;10.35;8.32;;;;;;;17.92;48.85;93041.75;5031930;28;20041;-85
2022/10/21 11:14:14;;;;;;;10.20;8.10;;;;;;;17.93;49.22;93048.72;5047233;28;20123;-85
2022/10/21 11:16:54;;;;;;;6.50;5.68;;;;;;;17.93;49.41;93049.44;5014986;28;20036;-85
2022/10/21 11:19:27;;;;;;;6.37;5.70;;;;;;;17.95;49.27;93046.94;5028783;28;20064;-85
2022/10/21 11:22:01;;;;;;;7.45;6.00;;;;;;;17.95;49.01;93041.47;5026789;28;20037;-88
2022/10/21 11:24:45;;;;;;;6.47;5.35;;;;;;;17.96;49.12;93042.22;5014336;28;20498;-85
2022/10/21 11:27:21;;;;;;;6.70;6.03;;;;;;;17.97;49.09;93044.41;5046511;28;20055;-86
2022/10/21 11:29:53;;;;;;;8.98;5.95;;;;;;;17.96;48.94;93036.75;5018943;28;20029;-86
2022/10/21 11:32:24;;;;;;;6.97;5.78;;;;;;;17.95;49.78;93029.78;5040007;28;20106;-86
2022/10/21 11:35:10;;;;;;;9.95;5.75;;;;;;;17.95;49.92;93033.25;5056252;28;20117;-86